Time;durP1;ratioP1;P1;durP2;ratioP2;P2;SDS_P1;SDS_P2;PMS_P1;PMS_P2;Temp;Humidity;BMP_temperature;BMP_pressure;BME280_temperature;BME280_humidity;BME280_pressure;Samples;Min_cycle;Max_cycle;Signal;HPM_P1;HPM_P2
2022/12/27 00:01:36;;;;;;;6.30;1.17;;;6.50;99.90;;;;;;5072030;28;20391;-51
2022/12/27 00:04:02;;;;;;;4.70;0.90;;;7.30;1.00;;;;;;5067671;28;20761;-51
2022/12/27 00:06:31;;;;;;;4.25;0.90;;;6.40;99.90;;;;;;5069415;28;20437;-51
2022/12/27 00:08:57;;;;;;;5.03;0.90;;;6.30;73.60;;;;;;5071227;28;20915;-53
2022/12/27 00:11:25;;;;;;;4.65;0.80;;;6.30;99.90;;;;;;5067166;28;20420;-52
2022/12/27 00:13:51;;;;;;;4.82;0.80;;;8.00;99.90;;;;;;5052745;28;20881;-51
2022/12/27 00:16:18;;;;;;;9.95;1.30;;;6.70;99.90;;;;;;5070095;28;20419;-51
2022/12/27 00:18:47;;;;;;;5.32;1.10;;;6.30;99.90;;;;;;5069670;28;20431;-51
2022/12/27 00:21:14;;;;;;;8.50;1.02;;;8.00;99.90;;;;;;5071252;28;20432;-51
2022/12/27 00:23:43;;;;;;;6.20;0.80;;;8.00;99.90;;;;;;5054763;28;20388;-51
2022/12/27 00:26:14;;;;;;;4.13;0.88;;;6.60;1.00;;;;;;5069454;28;20388;-51
2022/12/27 00:28:40;;;;;;;5.05;0.80;;;6.20;99.90;;;;;;5053048;28;20449;-50
2022/12/27 00:31:06;;;;;;;4.30;0.70;;;6.20;99.90;;;;;;5070499;28;20395;-51
2022/12/27 00:33:33;;;;;;;5.07;0.90;;;8.30;99.90;;;;;;5070663;28;20771;-51
2022/12/27 00:36:00;;;;;;;4.38;0.82;;;6.00;99.90;;;;;;5065776;28;20424;-55
2022/12/27 00:38:26;;;;;;;5.00;1.00;;;7.20;99.90;;;;;;5068639;28;20899;-51
2022/12/27 00:40:52;;;;;;;5.40;1.10;;;5.90;99.90;;;;;;5068453;28;20383;-51
2022/12/27 00:43:17;;;;;;;5.80;0.77;;;6.40;99.90;;;;;;5070537;28;20663;-51
2022/12/27 00:45:43;;;;;;;7.57;0.75;;;5.70;1.00;;;;;;5070993;28;20395;-53
2022/12/27 00:48:09;;;;;;;4.10;0.60;;;5.80;1.00;;;;;;5070846;28;20410;-53
2022/12/27 00:50:35;;;;;;;5.88;0.93;;;4.10;1.00;;;;;;5068428;28;20536;-53
2022/12/27 00:53:00;;;;;;;4.07;0.70;;;7.10;1.00;;;;;;5068073;28;20468;-54
2022/12/27 00:55:26;;;;;;;4.30;0.70;;;5.50;99.90;;;;;;5071006;28;20386;-54
2022/12/27 00:57:52;;;;;;;5.82;0.80;;;5.60;99.90;;;;;;5070972;28;20439;-54
2022/12/27 01:00:18;;;;;;;4.00;0.70;;;5.50;81.00;;;;;;5070929;28;20902;-54
2022/12/27 01:02:43;;;;;;;5.45;0.70;;;5.40;56.50;;;;;;5071027;28;20874;-53
2022/12/27 01:05:09;;;;;;;4.10;0.60;;;5.30;1.00;;;;;;5070156;28;20730;-52
2022/12/27 01:07:35;;;;;;;4.70;0.60;;;5.30;27.80;;;;;;5070882;28;20431;-51
2022/12/27 01:10:00;;;;;;;4.10;0.70;;;6.30;13.50;;;;;;5070641;28;20372;-58
2022/12/27 01:12:31;;;;;;;5.50;0.70;;;6.50;1.00;;;;;;5070409;28;20387;-53
2022/12/27 01:14:57;;;;;;;5.40;0.80;;;7.00;1.00;;;;;;5070664;28;20865;-51
2022/12/27 01:17:23;;;;;;;7.30;1.10;;;7.30;1.00;;;;;;5069898;28;20491;-51
2022/12/27 01:19:48;;;;;;;4.25;0.63;;;5.90;1.00;;;;;;5070560;28;20396;-51
2022/12/27 01:22:14;;;;;;;6.70;0.80;;;4.90;1.00;;;;;;5070135;28;20376;-53
2022/12/27 01:24:39;;;;;;;5.20;0.70;;;4.90;1.00;;;;;;5070439;28;20481;-54
2022/12/27 01:27:05;;;;;;;5.38;1.05;;;7.10;1.00;;;;;;5070086;28;20523;-51
2022/12/27 01:29:30;;;;;;;4.40;0.70;;;6.90;1.00;;;;;;5070694;28;20375;-51
2022/12/27 01:32:01;;;;;;;5.72;0.80;;;5.20;4.20;;;;;;5070828;28;20550;-50
2022/12/27 01:34:27;;;;;;;5.35;0.80;;;5.00;63.80;;;;;;5069763;28;20415;-51
2022/12/27 01:36:52;;;;;;;5.07;1.10;;;5.00;99.90;;;;;;5070496;28;20450;-53
2022/12/27 01:39:18;;;;;;;6.23;0.70;;;5.00;62.00;;;;;;5069805;28;21208;-52
2022/12/27 01:44:42;;;;;;;4.80;0.93;;;5.00;99.90;;;;;;5050298;28;20392;-52
2022/12/27 01:47:32;;;;;;;8.88;0.85;;;6.00;99.90;;;;;;5051980;28;20381;-52
2022/12/27 01:50:18;;;;;;;6.47;0.80;;;5.00;99.90;;;;;;5070381;28;20414;-51
2022/12/27 01:53:12;;;;;;;5.80;1.20;;;5.00;99.90;;;;;;5069096;28;20388;-51
2022/12/27 01:55:45;;;;;;;5.00;0.80;;;5.00;99.90;;;;;;5070141;28;20845;-51
2022/12/27 01:58:26;;;;;;;4.57;0.90;;;5.00;99.90;;;;;;5069068;28;20564;-51
2022/12/27 02:00:56;;;;;;;4.70;0.80;;;4.90;1.00;;;;;;5070043;28;20471;-51
2022/12/27 02:03:33;;;;;;;7.20;1.10;;;5.50;1.00;;;;;;5068350;28;21003;-52
2022/12/27 02:06:01;;;;;;;6.10;0.80;;;6.50;1.00;;;;;;5070492;28;20391;-52
2022/12/27 02:08:32;;;;;;;4.43;0.70;;;4.80;68.20;;;;;;5069734;28;20392;-52
2022/12/27 02:10:58;;;;;;;8.50;1.50;;;4.80;1.00;;;;;;5070141;28;20387;-52
2022/12/27 02:13:24;;;;;;;5.03;0.70;;;4.80;1.00;;;;;;5069206;28;20434;-51
2022/12/27 02:15:50;;;;;;;5.33;0.70;;;4.80;1.00;;;;;;5069767;28;20398;-51
2022/12/27 02:18:16;;;;;;;4.60;0.70;;;6.40;1.00;;;;;;5069272;28;21043;-51
2022/12/27 02:21:22;;;;;;;4.40;0.80;;;6.60;1.00;;;;;;5069961;28;20388;-52
2022/12/27 02:24:15;;;;;;;5.75;0.85;;;4.70;1.00;;;;;;5041807;28;20387;-51
2022/12/27 02:27:05;;;;;;;4.20;0.70;;;4.60;1.00;;;;;;5069663;28;20395;-54
2022/12/27 02:29:50;;;;;;;4.53;0.80;;;4.50;1.00;;;;;;5069463;28;20430;-52
2022/12/27 02:32:38;;;;;;;4.77;0.97;;;4.50;55.40;;;;;;5068862;28;20422;-50
2022/12/27 02:35:25;;;;;;;4.40;0.80;;;4.50;82.20;;;;;;5068546;28;20425;-51
2022/12/27 02:38:19;;;;;;;6.23;1.30;;;5.00;99.90;;;;;;5069989;28;20473;-51
2022/12/27 02:55:41;;;;;;;4.90;1.10;;;4.20;1.00;;;;;;5056618;28;20904;-51
2022/12/27 02:58:30;;;;;;;4.90;0.80;;;4.10;99.90;;;;;;5068278;28;20419;-51
2022/12/27 03:03:53;;;;;;;6.50;0.90;;;4.00;1.00;;;;;;5069449;28;20954;-53
2022/12/27 03:06:42;;;;;;;5.75;0.80;;;3.90;1.00;;;;;;5072900;28;20414;-53
2022/12/27 03:15:55;;;;;;;5.70;0.90;;;3.60;35.90;;;;;;5073220;28;20395;-53
2022/12/27 03:18:59;;;;;;;4.78;0.70;;;3.50;99.90;;;;;;5072981;28;20375;-55
2022/12/27 03:27:16;;;;;;;4.87;0.97;;;3.30;1.00;;;;;;5072737;28;20411;-57
2022/12/27 03:35:21;;;;;;;6.47;1.10;;;3.40;1.00;;;;;;5071396;28;20450;-53
2022/12/27 03:38:01;;;;;;;7.82;1.00;;;5.40;1.00;;;;;;5072887;28;20407;-53
2022/12/27 03:43:50;;;;;;;5.05;1.20;;;3.40;1.00;;;;;;5072815;28;20425;-53
2022/12/27 03:46:32;;;;;;;5.72;1.40;;;3.40;1.00;;;;;;5071971;28;20403;-53
2022/12/27 03:49:20;;;;;;;5.03;1.10;;;3.40;1.00;;;;;;5053819;28;20474;-53
2022/12/27 03:51:56;;;;;;;5.03;1.00;;;3.40;1.00;;;;;;5052862;28;20480;-53
2022/12/27 03:54:29;;;;;;;8.45;1.10;;;3.40;1.00;;;;;;5061546;28;20364;-53
2022/12/27 03:57:01;;;;;;;6.80;1.00;;;3.40;99.90;;;;;;5055268;28;20521;-53
2022/12/27 03:59:27;;;;;;;5.60;1.20;;;3.40;99.90;;;;;;5053105;28;20373;-52
2022/12/27 04:01:53;;;;;;;4.25;0.70;;;3.40;99.90;;;;;;5072472;28;20383;-53
2022/12/27 04:07:16;;;;;;;4.90;0.93;;;3.30;1.00;;;;;;5071628;28;20509;-53
2022/12/27 04:34:43;;;;;;;4.90;1.10;;;3.20;22.00;;;;;;5051867;28;20958;-53
2022/12/27 04:37:18;;;;;;;7.60;1.60;;;2.90;82.10;;;;;;5071270;28;20425;-53
2022/12/27 04:56:10;;;;;;;6.50;1.50;;;3.10;1.00;;;;;;5070813;28;20449;-52
2022/12/27 05:02:01;;;;;;;5.20;1.00;;;5.10;99.90;;;;;;5071363;28;20768;-52
2022/12/27 05:04:05;;;;;;;4.20;0.70;;;3.20;1.00;;;;;;5070256;28;20409;-57
2022/12/27 05:06:30;;;;;;;5.18;0.98;;;4.10;1.00;;;;;;5071441;28;20400;-52
2022/12/27 05:14:32;;;;;;;5.90;1.10;;;3.10;99.90;;;;;;5070785;28;20413;-53
2022/12/27 05:16:58;;;;;;;4.63;0.90;;;3.10;1.00;;;;;;5071018;28;20416;-52
2022/12/27 05:19:23;;;;;;;6.20;1.00;;;3.10;1.00;;;;;;5070581;28;20957;-52
2022/12/27 05:27:17;;;;;;;4.40;0.93;;;3.10;1.00;;;;;;5069326;28;20391;-53
2022/12/27 05:29:44;;;;;;;6.30;1.10;;;3.20;1.00;;;;;;5070906;28;20391;-52
2022/12/27 05:32:09;;;;;;;5.15;0.88;;;3.10;1.00;;;;;;5069983;28;20474;-53
2022/12/27 05:34:35;;;;;;;6.20;1.50;;;3.10;1.00;;;;;;5070300;28;20968;-53
2022/12/27 05:37:01;;;;;;;6.22;1.60;;;4.50;1.00;;;;;;5070571;28;20789;-53
2022/12/27 05:39:26;;;;;;;5.90;1.10;;;4.10;99.90;;;;;;5069550;28;20443;-52
2022/12/27 05:41:52;;;;;;;5.60;1.00;;;3.10;7.50;;;;;;5070487;28;20479;-53
2022/12/27 05:44:17;;;;;;;5.80;1.30;;;4.00;99.90;;;;;;5069508;28;20881;-52
2022/12/27 05:46:45;;;;;;;7.40;1.60;;;3.10;19.00;;;;;;5070190;28;20429;-52
2022/12/27 05:49:11;;;;;;;5.32;1.20;;;3.20;1.00;;;;;;5069941;28;20404;-52
2022/12/27 05:51:37;;;;;;;4.90;1.20;;;3.20;1.00;;;;;;5070432;28;20474;-52
2022/12/27 05:54:02;;;;;;;5.90;1.20;;;3.20;1.00;;;;;;5070185;28;20441;-52
2022/12/27 05:56:36;;;;;;;5.05;1.13;;;3.20;1.00;;;;;;5069472;28;20780;-52
2022/12/27 05:59:11;;;;;;;4.80;1.23;;;3.20;99.90;;;;;;5050634;28;20392;-52
2022/12/27 06:01:36;;;;;;;5.73;1.60;;;3.20;99.90;;;;;;5062385;28;20407;-52
2022/12/27 06:04:02;;;;;;;6.50;1.17;;;3.20;1.00;;;;;;5069909;28;20388;-52
2022/12/27 06:06:27;;;;;;;6.78;1.30;;;3.20;99.90;;;;;;5069279;28;20877;-52
2022/12/27 06:08:53;;;;;;;7.80;1.60;;;4.90;26.20;;;;;;5070377;28;20475;-52
2022/12/27 06:11:19;;;;;;;5.20;1.35;;;3.30;99.90;;;;;;5068734;28;20483;-52
2022/12/27 06:13:50;;;;;;;5.40;1.40;;;5.20;1.00;;;;;;5070101;28;20733;-52
2022/12/27 06:16:16;;;;;;;5.20;1.20;;;4.60;1.00;;;;;;5069245;28;20541;-52
2022/12/27 06:18:42;;;;;;;6.82;1.20;;;5.30;99.90;;;;;;5069946;28;20400;-52
2022/12/27 06:21:13;;;;;;;4.30;1.10;;;3.20;99.90;;;;;;5069296;28;20391;-56
2022/12/27 06:23:40;;;;;;;5.55;1.02;;;3.20;1.00;;;;;;5050829;28;20762;-52
2022/12/27 06:26:22;;;;;;;5.28;1.40;;;3.20;99.90;;;;;;5066331;28;20387;-56
2022/12/27 06:28:49;;;;;;;5.20;1.10;;;3.10;99.90;;;;;;5069283;28;20467;-52
2022/12/27 06:31:16;;;;;;;8.10;2.10;;;3.10;99.90;;;;;;5067918;28;20437;-52
2022/12/27 06:33:42;;;;;;;5.00;0.90;;;5.10;99.90;;;;;;5069626;28;21030;-52
2022/12/27 06:36:10;;;;;;;5.10;1.30;;;3.00;1.00;;;;;;5068474;28;20491;-57
2022/12/27 06:38:36;;;;;;;5.60;1.10;;;3.00;1.00;;;;;;5069077;28;20466;-52
2022/12/27 06:41:06;;;;;;;5.37;1.03;;;4.60;1.00;;;;;;5069622;28;20487;-52
2022/12/27 06:43:33;;;;;;;6.90;1.33;;;2.90;99.90;;;;;;5069491;28;20986;-52
2022/12/27 06:46:01;;;;;;;4.80;1.10;;;2.90;99.90;;;;;;5069414;28;20399;-54
2022/12/27 06:48:27;;;;;;;7.07;1.27;;;2.90;99.90;;;;;;5068579;28;20380;-53
2022/12/27 06:50:52;;;;;;;5.83;1.30;;;4.30;99.90;;;;;;5068635;28;20722;-53
2022/12/27 06:53:18;;;;;;;6.10;1.33;;;2.90;99.90;;;;;;5068861;28;20403;-52
2022/12/27 06:55:44;;;;;;;4.50;1.00;;;2.90;1.00;;;;;;5069010;28;20416;-52
2022/12/27 06:58:09;;;;;;;7.57;1.10;;;2.90;99.90;;;;;;5068551;28;20411;-53
2022/12/27 07:00:35;;;;;;;5.57;1.27;;;2.90;1.00;;;;;;5069362;28;20866;-53
2022/12/27 07:03:03;;;;;;;5.22;1.10;;;2.90;99.90;;;;;;5069696;28;20395;-52
2022/12/27 07:05:28;;;;;;;6.40;1.50;;;2.90;1.00;;;;;;5059289;28;20443;-52
2022/12/27 07:07:54;;;;;;;4.63;0.87;;;2.80;99.90;;;;;;5069093;28;20464;-53
2022/12/27 07:10:20;;;;;;;10.90;2.33;;;2.80;1.00;;;;;;5067390;28;20891;-52
2022/12/27 07:12:45;;;;;;;5.20;1.40;;;1.40;1.00;;;;;;5069149;28;20383;-52
2022/12/27 07:15:11;;;;;;;5.73;1.40;;;2.80;1.00;;;;;;5067888;28;20399;-55
2022/12/27 07:17:38;;;;;;;6.40;1.50;;;2.80;1.00;;;;;;5052657;28;20414;-53
2022/12/27 07:20:04;;;;;;;6.20;1.50;;;2.80;1.00;;;;;;5068875;28;20396;-52
2022/12/27 07:22:30;;;;;;;7.78;1.98;;;2.70;1.00;;;;;;5058641;28;20417;-55
2022/12/27 07:24:55;;;;;;;6.57;1.50;;;2.70;1.00;;;;;;5069044;28;20384;-53
2022/12/27 07:27:21;;;;;;;7.27;1.70;;;2.70;1.00;;;;;;5068298;28;20400;-54
2022/12/27 07:29:47;;;;;;;5.20;1.20;;;4.20;1.00;;;;;;5069386;28;20387;-52
2022/12/27 07:32:13;;;;;;;6.63;2.03;;;4.40;1.00;;;;;;5068007;28;20415;-52
2022/12/27 07:34:38;;;;;;;7.75;2.08;;;5.00;1.00;;;;;;5068594;28;20872;-52
2022/12/27 07:37:04;;;;;;;6.80;1.80;;;2.90;1.00;;;;;;5069043;28;20415;-52
2022/12/27 07:39:30;;;;;;;6.75;1.58;;;2.90;1.00;;;;;;5067979;28;20429;-52
2022/12/27 07:41:55;;;;;;;5.45;1.27;;;2.90;1.00;;;;;;5069137;28;20438;-52
2022/12/27 07:44:21;;;;;;;6.97;2.13;;;2.90;1.00;;;;;;5061173;28;20885;-52
2022/12/27 07:46:46;;;;;;;6.43;1.73;;;5.00;1.00;;;;;;5068391;28;20437;-53
2022/12/27 07:49:12;;;;;;;7.23;1.60;;;3.00;99.90;;;;;;5068121;28;20395;-52
2022/12/27 07:51:38;;;;;;;5.10;1.43;;;3.00;1.00;;;;;;5070936;28;20453;-52
2022/12/27 07:54:03;;;;;;;5.40;1.25;;;3.00;99.90;;;;;;5071183;28;20872;-52
2022/12/27 07:56:29;;;;;;;6.93;1.90;;;3.00;99.90;;;;;;5070862;28;20454;-53
2022/12/27 07:58:57;;;;;;;5.03;1.25;;;3.00;99.90;;;;;;5072621;28;20399;-52
2022/12/27 08:01:26;;;;;;;4.97;1.67;;;3.10;1.00;;;;;;5071183;28;20593;-54
2022/12/27 08:03:52;;;;;;;6.80;1.60;;;3.20;99.90;;;;;;5072218;28;20398;-52
2022/12/27 08:06:23;;;;;;;6.25;1.70;;;3.40;99.90;;;;;;5071217;28;20431;-53
2022/12/27 08:08:51;;;;;;;7.50;1.63;;;5.00;54.10;;;;;;5072392;28;20477;-53
2022/12/27 08:11:17;;;;;;;7.55;1.60;;;3.50;1.00;;;;;;5071425;28;20549;-52
2022/12/27 08:13:43;;;;;;;5.45;1.50;;;4.20;1.00;;;;;;5072319;28;20916;-53
2022/12/27 08:16:15;;;;;;;6.20;1.60;;;3.70;99.90;;;;;;5071455;28;20522;-57
2022/12/27 08:18:41;;;;;;;5.90;1.70;;;3.80;99.90;;;;;;5072161;28;20415;-52
2022/12/27 08:21:06;;;;;;;5.60;1.58;;;4.80;1.00;;;;;;5071485;28;20400;-57
2022/12/27 08:23:32;;;;;;;5.93;2.00;;;3.90;1.00;;;;;;5071808;28;20733;-53
2022/12/27 08:25:58;;;;;;;5.18;1.50;;;3.80;99.90;;;;;;5071427;28;20444;-52
2022/12/27 08:28:23;;;;;;;11.25;1.80;;;5.50;89.50;;;;;;5071022;28;20395;-53
2022/12/27 08:30:49;;;;;;;5.53;1.40;;;3.80;98.40;;;;;;5070567;28;20392;-53
2022/12/27 08:33:15;;;;;;;7.38;2.50;;;3.90;1.00;;;;;;5071106;28;20418;-53
2022/12/27 08:35:44;;;;;;;5.30;1.70;;;4.00;1.00;;;;;;5071446;28;20407;-55
2022/12/27 08:38:09;;;;;;;5.32;1.42;;;4.00;1.00;;;;;;5070610;28;20824;-57
2022/12/27 08:40:39;;;;;;;6.57;1.35;;;5.10;1.00;;;;;;5071450;28;20423;-52
2022/12/27 08:43:05;;;;;;;6.75;1.90;;;5.30;99.90;;;;;;5071251;28;20412;-53
2022/12/27 08:45:31;;;;;;;5.95;1.70;;;4.20;1.00;;;;;;5070897;28;20427;-52
2022/12/27 08:48:00;;;;;;;7.80;1.67;;;6.20;99.90;;;;;;5070416;28;20399;-53
2022/12/27 08:50:27;;;;;;;5.22;1.20;;;5.50;99.90;;;;;;5065643;28;20894;-53
2022/12/27 08:52:56;;;;;;;5.65;1.73;;;5.90;99.90;;;;;;5068898;28;20408;-53
2022/12/27 08:55:22;;;;;;;8.10;1.73;;;4.20;99.90;;;;;;5068808;28;20438;-52
2022/12/27 08:57:48;;;;;;;5.90;2.08;;;4.30;99.90;;;;;;5069855;28;20443;-54
2022/12/27 09:00:14;;;;;;;5.87;1.50;;;4.30;39.50;;;;;;5066427;28;20391;-53
2022/12/27 09:02:39;;;;;;;4.95;1.40;;;4.50;6.80;;;;;;5070242;28;20414;-53
2022/12/27 09:05:05;;;;;;;8.70;1.75;;;6.10;1.00;;;;;;5070989;28;20457;-52
2022/12/27 09:07:31;;;;;;;5.40;1.35;;;4.90;1.00;;;;;;5066593;28;20844;-50
2022/12/27 09:09:57;;;;;;;5.30;1.20;;;5.40;99.90;;;;;;5070591;28;20392;-50
2022/12/27 09:12:22;;;;;;;7.27;1.43;;;6.10;1.00;;;;;;5066466;28;20938;-55
2022/12/27 09:14:48;;;;;;;6.72;1.75;;;6.50;99.90;;;;;;5068381;28;20417;-53
2022/12/27 09:17:13;;;;;;;6.60;1.67;;;7.60;1.00;;;;;;5069211;28;20472;-52
2022/12/27 09:19:39;;;;;;;6.00;1.30;;;9.30;99.90;;;;;;5070256;28;20752;-54
2022/12/27 09:22:05;;;;;;;5.70;1.40;;;8.10;99.90;;;;;;5070503;28;20400;-54
2022/12/27 09:24:30;;;;;;;6.93;1.50;;;8.30;1.00;;;;;;5069081;28;20408;-54
2022/12/27 09:26:56;;;;;;;6.50;1.30;;;8.10;1.00;;;;;;5070059;28;21118;-54
2022/12/27 09:29:21;;;;;;;5.47;1.23;;;9.70;1.00;;;;;;5069357;28;20615;-53
2022/12/27 09:31:47;;;;;;;5.63;1.25;;;8.00;1.00;;;;;;5069858;28;20402;-53
2022/12/27 09:34:13;;;;;;;5.73;1.20;;;7.90;1.00;;;;;;5061611;28;20414;-53
2022/12/27 09:36:39;;;;;;;6.60;1.30;;;8.10;1.00;;;;;;5068904;28;20407;-54
2022/12/27 09:39:05;;;;;;;7.57;1.25;;;8.50;1.00;;;;;;5069603;28;21195;-56
2022/12/27 09:41:36;;;;;;;6.50;1.40;;;9.10;1.00;;;;;;5069318;28;20392;-57
2022/12/27 09:44:10;;;;;;;5.85;1.30;;;9.10;1.00;;;;;;5069109;28;20423;-56
2022/12/27 09:46:41;;;;;;;8.40;1.45;;;9.20;1.00;;;;;;5062601;28;20395;-56
2022/12/27 09:49:12;;;;;;;5.95;1.30;;;9.20;1.00;;;;;;5066625;28;20877;-58
2022/12/27 09:51:57;;;;;;;6.40;1.30;;;9.10;1.00;;;;;;5066751;28;20407;-56
2022/12/27 09:54:33;;;;;;;5.70;1.40;;;9.60;1.00;;;;;;5064508;28;20400;-56
2022/12/27 09:57:02;;;;;;;6.35;1.40;;;9.40;1.00;;;;;;5064869;28;20405;-56
2022/12/27 09:59:30;;;;;;;5.30;1.52;;;9.90;1.00;;;;;;5049468;28;20410;-56
2022/12/27 10:01:56;;;;;;;6.90;1.70;;;10.10;1.00;;;;;;5065549;28;20465;-57
2022/12/27 10:04:22;;;;;;;7.68;2.10;;;10.30;1.00;;;;;;5069275;28;21040;-56
2022/12/27 10:06:47;;;;;;;7.60;1.60;;;10.70;1.00;;;;;;5060076;28;20447;-57
2022/12/27 10:09:31;;;;;;;7.60;1.90;;;10.60;1.00;;;;;;5066174;28;20427;-56
2022/12/27 10:12:14;;;;;;;7.40;1.55;;;10.20;1.00;;;;;;5062413;28;20395;-57
2022/12/27 10:15:01;;;;;;;7.60;1.73;;;8.40;1.00;;;;;;5066090;28;20734;-55
2022/12/27 10:17:32;;;;;;;8.23;1.25;;;9.70;1.00;;;;;;5068807;28;20799;-55
2022/12/27 10:20:30;;;;;;;5.78;1.05;;;10.00;1.00;;;;;;5069575;28;20426;-56
2022/12/27 10:23:22;;;;;;;7.90;2.33;;;10.30;1.00;;;;;;5056164;28;20914;-56
2022/12/27 10:25:59;;;;;;;6.55;1.80;;;10.50;1.00;;;;;;5057897;28;20408;-60
2022/12/27 10:28:40;;;;;;;7.68;2.80;;;10.90;1.00;;;;;;5065923;28;20531;-57
2022/12/27 10:31:17;;;;;;;8.32;3.08;;;11.50;1.00;;;;;;5067596;28;20440;-55
2022/12/27 10:33:44;;;;;;;7.28;2.35;;;11.30;1.00;;;;;;5068109;28;20376;-56
2022/12/27 10:36:14;;;;;;;13.15;4.70;;;10.50;1.00;;;;;;5048778;28;20456;-61
2022/12/27 10:38:40;;;;;;;5.53;1.55;;;10.40;1.00;;;;;;5046322;28;20421;-57
2022/12/27 10:41:39;;;;;;;9.03;3.13;;;10.50;1.00;;;;;;5046487;28;20425;-57
2022/12/27 10:44:11;;;;;;;7.80;2.45;;;10.60;1.00;;;;;;5045939;28;20520;-56
2022/12/27 10:46:40;;;;;;;10.18;3.75;;;10.70;1.00;;;;;;5045532;28;20409;-56
2022/12/27 10:49:26;;;;;;;8.60;1.77;;;10.60;1.00;;;;;;5046282;28;20707;-58
2022/12/27 10:51:57;;;;;;;13.13;6.47;;;10.40;1.00;;;;;;5048901;28;20393;-57
2022/12/27 10:54:26;;;;;;;8.57;4.30;;;10.60;1.00;;;;;;5047149;28;20413;-56
2022/12/27 10:56:52;;;;;;;7.97;1.98;;;10.80;1.00;;;;;;5049474;28;20408;-56
2022/12/27 10:59:25;;;;;;;11.30;4.63;;;10.90;1.00;;;;;;5050765;28;20387;-60
2022/12/27 11:02:03;;;;;;;10.00;3.23;;;10.60;1.00;;;;;;5044016;28;20398;-57
2022/12/27 11:04:30;;;;;;;5.90;1.30;;;10.60;1.00;;;;;;5045482;28;20414;-57
2022/12/27 11:06:58;;;;;;;5.78;1.50;;;10.80;1.00;;;;;;5048455;28;20421;-54
2022/12/27 11:09:27;;;;;;;7.30;1.30;;;11.10;1.00;;;;;;5047949;28;20400;-54
2022/12/27 11:12:31;;;;;;;8.00;2.63;;;11.00;1.00;;;;;;5049015;28;20608;-56
2022/12/27 11:15:03;;;;;;;7.07;1.40;;;10.90;1.00;;;;;;4938599;29;20420;-53
2022/12/27 11:17:40;;;;;;;5.70;1.10;;;10.90;1.00;;;;;;4938061;29;20431;-55
2022/12/27 11:20:20;;;;;;;6.30;1.13;;;10.80;1.00;;;;;;4999409;28;20389;-57
2022/12/27 11:22:53;;;;;;;6.20;0.80;;;10.80;1.00;;;;;;5048431;28;20385;-54
2022/12/27 11:25:20;;;;;;;5.95;1.20;;;11.10;1.00;;;;;;5043237;28;20401;-54
2022/12/27 11:27:49;;;;;;;4.93;1.00;;;11.10;1.00;;;;;;5052771;28;20862;-55
2022/12/27 11:30:28;;;;;;;6.63;2.47;;;11.30;1.00;;;;;;5051646;28;20484;-55
2022/12/27 11:32:54;;;;;;;4.70;1.00;;;11.10;1.00;;;;;;5050224;28;20392;-57
2022/12/27 11:35:22;;;;;;;6.63;1.50;;;10.70;1.00;;;;;;5065730;28;20396;-57
2022/12/27 11:37:49;;;;;;;7.90;3.53;;;10.60;1.00;;;;;;5073884;28;20873;-56
2022/12/27 11:40:23;;;;;;;6.75;2.33;;;10.00;1.00;;;;;;5072196;28;20383;-59
2022/12/27 11:43:02;;;;;;;6.20;1.80;;;9.70;1.00;;;;;;5073597;28;20384;-56
2022/12/27 11:45:43;;;;;;;5.00;0.90;;;9.70;1.00;;;;;;5069906;28;20453;-56
2022/12/27 11:48:18;;;;;;;6.20;1.10;;;9.80;1.00;;;;;;5069646;28;20753;-56
2022/12/27 11:51:12;;;;;;;8.20;2.13;;;9.70;1.00;;;;;;5065857;28;20895;-59
2022/12/27 11:53:56;;;;;;;6.10;1.20;;;9.60;1.00;;;;;;5071567;28;20399;-57
2022/12/27 11:56:28;;;;;;;5.07;0.88;;;9.60;1.00;;;;;;5071268;28;20398;-57
2022/12/27 11:59:18;;;;;;;25.83;20.33;;;9.60;1.00;;;;;;5079357;28;20413;-55
2022/12/27 12:01:53;;;;;;;7.78;1.30;;;9.50;1.00;;;;;;5069698;28;20473;-54
2022/12/27 12:05:02;;;;;;;9.27;3.85;;;9.60;1.00;;;;;;5075500;28;20399;-53
2022/12/27 12:07:30;;;;;;;7.22;2.00;;;9.80;1.00;;;;;;4986463;28;20443;-55
2022/12/27 12:10:17;;;;;;;6.60;1.75;;;9.90;1.00;;;;;;5059595;28;20419;-53
2022/12/27 12:13:07;;;;;;;8.00;2.80;;;10.00;1.00;;;;;;5074149;28;20391;-55
2022/12/27 12:15:44;;;;;;;4.90;0.90;;;10.10;1.00;;;;;;5076446;28;20386;-56
2022/12/27 12:18:53;;;;;;;9.48;2.58;;;10.10;1.00;;;;;;5088684;28;20440;-61
2022/12/27 12:22:02;;;;;;;6.87;2.40;;;10.10;1.00;;;;;;5051280;28;20386;-56
2022/12/27 12:24:49;;;;;;;14.10;5.13;;;10.10;1.00;;;;;;5078197;28;20398;-53
2022/12/27 12:27:45;;;;;;;11.50;2.87;;;10.20;1.00;;;;;;5071620;28;20884;-56
2022/12/27 12:30:30;;;;;;;9.70;3.05;;;10.20;1.00;;;;;;5074504;28;20390;-57
2022/12/27 12:33:06;;;;;;;6.65;1.63;;;10.10;1.00;;;;;;5078535;28;20395;-53
2022/12/27 12:36:02;;;;;;;8.13;1.40;;;10.30;1.00;;;;;;5078512;28;20408;-53
2022/12/27 12:38:44;;;;;;;6.93;1.17;;;10.40;1.00;;;;;;5079160;28;20817;-54
2022/12/27 12:41:48;;;;;;;10.70;1.20;;;9.90;1.00;;;;;;5087007;28;20385;-56
2022/12/27 12:44:32;;;;;;;6.00;1.50;;;9.80;1.00;;;;;;5057933;28;20868;-57
2022/12/27 12:47:31;;;;;;;5.57;1.00;;;9.80;1.00;;;;;;5073672;28;20413;-53
2022/12/27 12:50:08;;;;;;;6.20;0.97;;;9.90;1.00;;;;;;5091436;28;20390;-53
2022/12/27 12:52:59;;;;;;;5.40;0.80;;;10.00;1.00;;;;;;5072930;28;20488;-53
2022/12/27 12:55:47;;;;;;;7.70;0.87;;;9.80;1.00;;;;;;5070375;28;20384;-53
2022/12/27 12:58:23;;;;;;;6.05;1.35;;;9.60;1.00;;;;;;5070758;28;20461;-59
2022/12/27 13:01:15;;;;;;;5.35;1.00;;;9.80;1.00;;;;;;5071508;28;20858;-54
2022/12/27 13:04:17;;;;;;;6.70;1.50;;;9.80;1.00;;;;;;5072058;28;20408;-53
2022/12/27 13:07:11;;;;;;;4.88;1.00;;;9.50;1.00;;;;;;5091488;28;20448;-53
2022/12/27 13:10:16;;;;;;;6.00;1.20;;;9.50;1.00;;;;;;5075073;28;20388;-53
2022/12/27 13:13:10;;;;;;;6.70;1.20;;;9.70;1.00;;;;;;5066782;28;20391;-53
2022/12/27 13:16:14;;;;;;;5.60;1.50;;;9.80;1.00;;;;;;5019360;28;20761;-55
2022/12/27 13:19:07;;;;;;;6.75;1.10;;;9.80;1.00;;;;;;5066215;28;20494;-53
2022/12/27 13:22:07;;;;;;;5.63;1.20;;;9.90;1.00;;;;;;5065865;28;20937;-53
2022/12/27 13:24:57;;;;;;;5.63;1.02;;;9.80;1.00;;;;;;5062991;28;20496;-54
2022/12/27 13:28:01;;;;;;;7.63;1.30;;;9.60;1.00;;;;;;5064642;28;20817;-53
2022/12/27 13:30:41;;;;;;;6.20;1.00;;;9.60;1.00;;;;;;4961863;28;20393;-52
2022/12/27 13:33:34;;;;;;;5.73;1.00;;;9.70;1.00;;;;;;5066163;28;20400;-52
2022/12/27 13:36:27;;;;;;;6.53;1.00;;;9.80;1.00;;;;;;5066481;28;20406;-53
2022/12/27 13:39:15;;;;;;;6.18;1.00;;;10.60;1.00;;;;;;5062677;28;20418;-54
2022/12/27 13:42:03;;;;;;;5.70;1.30;;;9.70;1.00;;;;;;5066239;28;20730;-53
2022/12/27 13:44:48;;;;;;;7.60;1.60;;;9.70;1.00;;;;;;5064555;28;20400;-54
2022/12/27 13:47:22;;;;;;;9.85;1.70;;;9.70;1.00;;;;;;5067362;28;20395;-58
2022/12/27 13:50:10;;;;;;;5.60;1.50;;;9.50;1.00;;;;;;5069931;28;20967;-55
2022/12/27 13:53:06;;;;;;;5.40;1.20;;;9.50;1.00;;;;;;5066947;28;20640;-53
2022/12/27 13:55:54;;;;;;;6.40;1.40;;;9.40;1.00;;;;;;5069042;28;20376;-55
2022/12/27 13:58:44;;;;;;;7.60;1.60;;;9.40;1.00;;;;;;5064535;28;20929;-50
2022/12/27 14:01:28;;;;;;;6.65;1.58;;;9.30;1.00;;;;;;5065745;28;20404;-51
2022/12/27 14:04:22;;;;;;;6.28;1.50;;;9.20;1.00;;;;;;5069570;28;20417;-53
2022/12/27 14:07:16;;;;;;;5.90;1.10;;;9.10;1.00;;;;;;5059568;28;20429;-54
2022/12/27 14:09:54;;;;;;;7.30;1.50;;;9.20;1.00;;;;;;5068327;28;20419;-53
2022/12/27 14:12:57;;;;;;;7.78;1.48;;;9.20;1.00;;;;;;5071824;28;20438;-53
2022/12/27 14:15:31;;;;;;;7.15;1.40;;;9.20;1.00;;;;;;5069784;28;21215;-53
2022/12/27 14:18:23;;;;;;;7.82;1.63;;;9.30;1.00;;;;;;5069995;28;20417;-54
2022/12/27 14:21:03;;;;;;;6.38;1.58;;;9.30;1.00;;;;;;5068948;28;20392;-53
2022/12/27 14:23:28;;;;;;;11.00;1.33;;;9.20;1.00;;;;;;5066408;28;20847;-53
2022/12/27 14:26:33;;;;;;;5.50;1.07;;;9.30;1.00;;;;;;5067496;28;20396;-54
2022/12/27 14:29:13;;;;;;;10.57;1.70;;;9.20;1.00;;;;;;5067575;28;20398;-53
2022/12/27 14:32:14;;;;;;;5.87;1.50;;;9.20;1.00;;;;;;5068084;28;20380;-53
2022/12/27 14:35:06;;;;;;;8.65;1.88;;;9.30;1.00;;;;;;5069587;28;20400;-55
2022/12/27 14:38:02;;;;;;;9.25;1.67;;;9.20;1.00;;;;;;5066792;28;20754;-51
2022/12/27 14:40:51;;;;;;;8.38;1.15;;;9.20;1.00;;;;;;5068825;28;20475;-51
2022/12/27 14:43:33;;;;;;;8.30;1.98;;;9.10;1.00;;;;;;5069019;28;20388;-56
2022/12/27 14:46:12;;;;;;;8.02;1.60;;;9.30;1.00;;;;;;5069278;28;20379;-51
2022/12/27 14:49:05;;;;;;;8.38;1.50;;;9.20;1.00;;;;;;5068667;28;20947;-52
2022/12/27 14:51:56;;;;;;;5.57;1.50;;;9.10;1.00;;;;;;5058464;28;20396;-52
2022/12/27 14:54:40;;;;;;;8.50;1.50;;;9.10;1.00;;;;;;5067234;28;20388;-51
2022/12/27 14:57:14;;;;;;;6.90;1.50;;;9.00;1.00;;;;;;5068689;28;20407;-51
2022/12/27 15:00:01;;;;;;;6.35;1.10;;;8.90;1.00;;;;;;5069218;28;20396;-51
2022/12/27 15:02:38;;;;;;;5.97;1.40;;;8.90;1.00;;;;;;5067969;28;20426;-51
2022/12/27 15:05:25;;;;;;;5.50;1.35;;;8.80;1.00;;;;;;5067082;28;20406;-51
2022/12/27 15:08:12;;;;;;;8.98;1.60;;;8.90;1.00;;;;;;5067793;28;20388;-50
2022/12/27 15:10:47;;;;;;;7.68;1.52;;;8.80;1.00;;;;;;5067743;28;20395;-51
2022/12/27 15:13:35;;;;;;;5.78;1.50;;;8.70;1.00;;;;;;5067252;28;20437;-55
2022/12/27 15:16:12;;;;;;;7.70;1.80;;;8.70;1.00;;;;;;5057019;28;20400;-51
2022/12/27 15:18:59;;;;;;;7.13;1.70;;;8.50;1.00;;;;;;5061942;28;20423;-53
2022/12/27 15:21:51;;;;;;;8.18;1.70;;;8.40;1.00;;;;;;5059357;28;20399;-51